ASA582 KLAX-KSEA
Flight info
| Callsign | ASA582 |
|---|---|
| Flight time | 2h 20m |
| Altitude | 34000 |
| Route | LADYJ4 CSTRO DCT SHIMR DCT LKV HAWKZ8 |
| Aircraft | B38M/M-V/N |
Departure
| Time | 2026-05-06 02:42 |
|---|---|
| Airport | Los Angeles International Airport (KLAX) |
Arrival
| Time | 2026-05-06 05:02 |
|---|---|
| Airport | Seattle–Tacoma International Airport (KSEA) |
| Time | Latitude | Longitude | Altitude | Speed | Heading |
|---|---|---|---|---|---|
| 2026-05-05 22:00 | 33.94111 | -118.40378 | 128 ft | 0 kts | 268° |
| 2026-05-06 02:32 | 33.94111 | -118.40375 | 128 ft | 1 kts | 268° |
| 2026-05-06 02:32 | 33.94113 | -118.40355 | 124 ft | 3 kts | 249° |
| 2026-05-06 02:32 | 33.94123 | -118.40336 | 124 ft | 3 kts | 218° |
| 2026-05-06 02:33 | 33.94139 | -118.40327 | 125 ft | 2 kts | 181° |
| 2026-05-06 02:33 | 33.94145 | -118.40327 | 124 ft | 0 kts | 173° |
| 2026-05-06 02:38 | 33.94127 | -118.40325 | 125 ft | 8 kts | 173° |
| 2026-05-06 02:38 | 33.94025 | -118.40310 | 126 ft | 21 kts | 173° |
| 2026-05-06 02:38 | 33.93864 | -118.40273 | 126 ft | 15 kts | 136° |
| 2026-05-06 02:38 | 33.93861 | -118.40160 | 128 ft | 16 kts | 79° |
| 2026-05-06 02:39 | 33.93880 | -118.39983 | 128 ft | 28 kts | 83° |
| 2026-05-06 02:39 | 33.93906 | -118.39711 | 128 ft | 37 kts | 84° |
| 2026-05-06 02:39 | 33.93939 | -118.39391 | 126 ft | 32 kts | 81° |
| 2026-05-06 02:39 | 33.93964 | -118.39166 | 128 ft | 21 kts | 83° |
| 2026-05-06 02:40 | 33.93982 | -118.38987 | 128 ft | 23 kts | 83° |
| 2026-05-06 02:40 | 33.94001 | -118.38791 | 128 ft | 24 kts | 83° |
| 2026-05-06 02:40 | 33.94022 | -118.38583 | 128 ft | 26 kts | 83° |
| 2026-05-06 02:40 | 33.94045 | -118.38371 | 128 ft | 14 kts | 83° |
| 2026-05-06 02:41 | 33.94057 | -118.38245 | 126 ft | 16 kts | 83° |
| 2026-05-06 02:41 | 33.94075 | -118.38087 | 128 ft | 22 kts | 80° |
| 2026-05-06 02:41 | 33.94023 | -118.37983 | 127 ft | 10 kts | 192° |
| 2026-05-06 02:41 | 33.93982 | -118.38058 | 124 ft | 15 kts | 256° |
| 2026-05-06 02:42 | 33.93953 | -118.38332 | 123 ft | 67 kts | 263° |
| 2026-05-06 02:42 | 33.93862 | -118.39212 | 128 ft | 141 kts | 262° |
| 2026-05-06 02:42 | 33.93724 | -118.40588 | 391 ft | 181 kts | 263° |
| 2026-05-06 02:42 | 33.93565 | -118.42138 | 1307 ft | 188 kts | 262° |
| 2026-05-06 02:43 | 33.93351 | -118.43755 | 2196 ft | 199 kts | 261° |
| 2026-05-06 02:43 | 33.93108 | -118.45466 | 2858 ft | 213 kts | 263° |
| 2026-05-06 02:43 | 33.92980 | -118.47274 | 3557 ft | 227 kts | 266° |
| 2026-05-06 02:43 | 33.92852 | -118.49221 | 4220 ft | 240 kts | 265° |
| 2026-05-06 02:44 | 33.92705 | -118.51266 | 4809 ft | 252 kts | 265° |
| 2026-05-06 02:44 | 33.92543 | -118.53403 | 4931 ft | 259 kts | 265° |
| 2026-05-06 02:44 | 33.92370 | -118.55588 | 5119 ft | 258 kts | 265° |
| 2026-05-06 02:44 | 33.92195 | -118.57757 | 5778 ft | 262 kts | 265° |
| 2026-05-06 02:45 | 33.92017 | -118.59922 | 6450 ft | 266 kts | 266° |
| 2026-05-06 02:45 | 33.92071 | -118.62179 | 7088 ft | 266 kts | 288° |
| 2026-05-06 02:45 | 33.92937 | -118.64111 | 7763 ft | 263 kts | 315° |
| 2026-05-06 02:45 | 33.94425 | -118.65301 | 8569 ft | 263 kts | 340° |
| 2026-05-06 02:46 | 33.96165 | -118.66117 | 9434 ft | 267 kts | 337° |
| 2026-05-06 02:46 | 33.97868 | -118.67060 | 10253 ft | 271 kts | 335° |
| 2026-05-06 02:46 | 33.99637 | -118.67847 | 11024 ft | 273 kts | 353° |
| 2026-05-06 02:46 | 34.01531 | -118.67746 | 11810 ft | 274 kts | 7° |
| 2026-05-06 02:47 | 34.03447 | -118.67545 | 12585 ft | 278 kts | 4° |
| 2026-05-06 02:47 | 34.05392 | -118.67388 | 13384 ft | 282 kts | 4° |
| 2026-05-06 02:47 | 34.07344 | -118.67244 | 14019 ft | 291 kts | 5° |
| 2026-05-06 02:47 | 34.09404 | -118.66843 | 14398 ft | 303 kts | 12° |
| 2026-05-06 02:48 | 34.11485 | -118.66324 | 14794 ft | 314 kts | 12° |
| 2026-05-06 02:48 | 34.13653 | -118.65801 | 15221 ft | 318 kts | 12° |
| 2026-05-06 02:48 | 34.15826 | -118.65281 | 15650 ft | 320 kts | 12° |
| 2026-05-06 02:48 | 34.18028 | -118.64758 | 16089 ft | 322 kts | 12° |
| 2026-05-06 02:49 | 34.20261 | -118.64228 | 16540 ft | 324 kts | 12° |
| 2026-05-06 02:49 | 34.22483 | -118.63702 | 16858 ft | 338 kts | 12° |
| 2026-05-06 02:49 | 34.24912 | -118.63371 | 16804 ft | 354 kts | 357° |
| 2026-05-06 02:49 | 34.27361 | -118.63899 | 16820 ft | 360 kts | 350° |
| 2026-05-06 02:50 | 34.29832 | -118.64479 | 16823 ft | 364 kts | 351° |
| 2026-05-06 02:50 | 34.32319 | -118.65051 | 16997 ft | 363 kts | 351° |
| 2026-05-06 02:50 | 34.34821 | -118.65624 | 17442 ft | 366 kts | 351° |
| 2026-05-06 02:50 | 34.37340 | -118.66199 | 17913 ft | 369 kts | 351° |
| 2026-05-06 02:51 | 34.39873 | -118.66777 | 18369 ft | 372 kts | 351° |
| 2026-05-06 02:51 | 34.42425 | -118.67353 | 18784 ft | 374 kts | 352° |
| 2026-05-06 02:51 | 34.44988 | -118.67863 | 19290 ft | 374 kts | 353° |
| 2026-05-06 02:51 | 34.47570 | -118.68368 | 19820 ft | 378 kts | 353° |
| 2026-05-06 02:52 | 34.50175 | -118.68877 | 20387 ft | 380 kts | 353° |
| 2026-05-06 02:52 | 34.52792 | -118.69388 | 20943 ft | 382 kts | 354° |
| 2026-05-06 02:52 | 34.55431 | -118.69903 | 21510 ft | 384 kts | 354° |
| 2026-05-06 02:52 | 34.58041 | -118.70414 | 22092 ft | 386 kts | 354° |
| 2026-05-06 02:53 | 34.60728 | -118.70939 | 22679 ft | 387 kts | 354° |
| 2026-05-06 02:53 | 34.63393 | -118.71461 | 23289 ft | 387 kts | 355° |
| 2026-05-06 02:53 | 34.66024 | -118.71976 | 23846 ft | 388 kts | 355° |
| 2026-05-06 02:53 | 34.68682 | -118.72497 | 24352 ft | 388 kts | 355° |
| 2026-05-06 02:54 | 34.71353 | -118.73065 | 24868 ft | 390 kts | 350° |
| 2026-05-06 02:54 | 34.73869 | -118.74388 | 25396 ft | 401 kts | 335° |
| 2026-05-06 02:54 | 34.76262 | -118.76103 | 25965 ft | 397 kts | 338° |
| 2026-05-06 02:54 | 34.78673 | -118.77749 | 26531 ft | 395 kts | 338° |
| 2026-05-06 02:55 | 34.81057 | -118.79380 | 27113 ft | 392 kts | 339° |
| 2026-05-06 02:55 | 34.83428 | -118.81007 | 27703 ft | 389 kts | 339° |
| 2026-05-06 02:55 | 34.85783 | -118.82625 | 28236 ft | 387 kts | 340° |
| 2026-05-06 02:55 | 34.88127 | -118.84236 | 28661 ft | 388 kts | 340° |
| 2026-05-06 02:56 | 34.90480 | -118.85855 | 29063 ft | 390 kts | 340° |
| 2026-05-06 02:56 | 34.92853 | -118.87489 | 29462 ft | 391 kts | 340° |
| 2026-05-06 02:56 | 34.95220 | -118.89119 | 29878 ft | 391 kts | 341° |
| 2026-05-06 02:56 | 34.97581 | -118.90748 | 30260 ft | 391 kts | 341° |
| 2026-05-06 02:57 | 34.99960 | -118.92390 | 30612 ft | 391 kts | 340° |
| 2026-05-06 02:57 | 35.02322 | -118.94021 | 30962 ft | 391 kts | 340° |
| 2026-05-06 02:57 | 35.04688 | -118.95655 | 31336 ft | 390 kts | 340° |
| 2026-05-06 02:57 | 35.07046 | -118.97285 | 31678 ft | 389 kts | 340° |
| 2026-05-06 02:58 | 35.09400 | -118.98914 | 32043 ft | 387 kts | 340° |
| 2026-05-06 02:58 | 35.11739 | -119.00532 | 32413 ft | 385 kts | 340° |
| 2026-05-06 02:58 | 35.14040 | -119.02126 | 32780 ft | 383 kts | 340° |
| 2026-05-06 02:58 | 35.15600 | -119.03207 | 33028 ft | 381 kts | 340° |
| 2026-05-06 02:59 | 35.18646 | -119.05319 | 33537 ft | 377 kts | 340° |
| 2026-05-06 02:59 | 35.20922 | -119.06898 | 33912 ft | 374 kts | 340° |
| 2026-05-06 02:59 | 35.22451 | -119.07960 | 34058 ft | 375 kts | 340° |
| 2026-05-06 03:00 | 35.27042 | -119.11150 | 34048 ft | 387 kts | 340° |
| 2026-05-06 03:00 | 35.31784 | -119.14449 | 34048 ft | 398 kts | 339° |
| 2026-05-06 03:01 | 35.36671 | -119.17855 | 34044 ft | 409 kts | 339° |
| 2026-05-06 03:01 | 35.41684 | -119.21352 | 34042 ft | 417 kts | 339° |
| 2026-05-06 03:02 | 35.46855 | -119.24184 | 34050 ft | 394 kts | 357° |
| 2026-05-06 03:02 | 35.52253 | -119.25743 | 34045 ft | 400 kts | 354° |
| 2026-05-06 03:03 | 35.57655 | -119.27364 | 34043 ft | 399 kts | 354° |
| 2026-05-06 03:03 | 35.63063 | -119.28983 | 34048 ft | 399 kts | 354° |
| 2026-05-06 03:04 | 35.68469 | -119.30603 | 34047 ft | 399 kts | 354° |
| 2026-05-06 03:04 | 35.73873 | -119.32224 | 34051 ft | 400 kts | 354° |
| 2026-05-06 03:05 | 35.79293 | -119.33227 | 34048 ft | 393 kts | 1° |
| 2026-05-06 03:05 | 35.84696 | -119.34040 | 34051 ft | 394 kts | 0° |
| 2026-05-06 03:06 | 35.90142 | -119.34903 | 34047 ft | 394 kts | 0° |
| 2026-05-06 03:06 | 35.95588 | -119.35774 | 34042 ft | 394 kts | 360° |
| 2026-05-06 03:07 | 36.01030 | -119.36648 | 34045 ft | 394 kts | 360° |
| 2026-05-06 03:07 | 36.06469 | -119.37522 | 34048 ft | 394 kts | 360° |
| 2026-05-06 03:08 | 36.11904 | -119.38396 | 34054 ft | 393 kts | 360° |
| 2026-05-06 03:08 | 36.17334 | -119.39271 | 34057 ft | 394 kts | 360° |
| 2026-05-06 03:09 | 36.22777 | -119.40150 | 34062 ft | 393 kts | 360° |
| 2026-05-06 03:09 | 36.28206 | -119.41027 | 34060 ft | 393 kts | 360° |
| 2026-05-06 03:10 | 36.33634 | -119.41906 | 34058 ft | 393 kts | 360° |
| 2026-05-06 03:10 | 36.39048 | -119.42784 | 34061 ft | 393 kts | 359° |
| 2026-05-06 03:11 | 36.44462 | -119.43662 | 34054 ft | 392 kts | 359° |
| 2026-05-06 03:11 | 36.49872 | -119.44541 | 34048 ft | 392 kts | 359° |
| 2026-05-06 03:12 | 36.55279 | -119.45421 | 34040 ft | 391 kts | 359° |
| 2026-05-06 03:12 | 36.60678 | -119.46301 | 34040 ft | 391 kts | 359° |
| 2026-05-06 03:13 | 36.66076 | -119.47182 | 34043 ft | 391 kts | 359° |
| 2026-05-06 03:13 | 36.71471 | -119.48064 | 34043 ft | 391 kts | 359° |
| 2026-05-06 03:14 | 36.76863 | -119.48946 | 34046 ft | 391 kts | 359° |
| 2026-05-06 03:14 | 36.82248 | -119.49829 | 34043 ft | 390 kts | 359° |
| 2026-05-06 03:15 | 36.87634 | -119.50713 | 34042 ft | 390 kts | 359° |
| 2026-05-06 03:15 | 36.93024 | -119.51599 | 34042 ft | 390 kts | 359° |
| 2026-05-06 03:16 | 36.98380 | -119.52481 | 34041 ft | 391 kts | 359° |
| 2026-05-06 03:16 | 37.03771 | -119.53370 | 34037 ft | 391 kts | 359° |
| 2026-05-06 03:17 | 37.09167 | -119.54260 | 34047 ft | 391 kts | 359° |
| 2026-05-06 03:17 | 37.14608 | -119.55160 | 34045 ft | 391 kts | 359° |
| 2026-05-06 03:18 | 37.19980 | -119.56049 | 34043 ft | 392 kts | 359° |
| 2026-05-06 03:18 | 37.25383 | -119.56945 | 34042 ft | 392 kts | 359° |
| 2026-05-06 03:19 | 37.30794 | -119.57844 | 34044 ft | 392 kts | 359° |
| 2026-05-06 03:19 | 37.36216 | -119.58745 | 34035 ft | 392 kts | 358° |
| 2026-05-06 03:20 | 37.44350 | -119.60100 | 34043 ft | 393 kts | 359° |
| 2026-05-06 03:20 | 37.49774 | -119.61005 | 34041 ft | 393 kts | 358° |
| 2026-05-06 03:21 | 37.55208 | -119.61913 | 34043 ft | 393 kts | 358° |
| 2026-05-06 03:21 | 37.60621 | -119.62819 | 34054 ft | 393 kts | 358° |
| 2026-05-06 03:22 | 37.66024 | -119.63725 | 34052 ft | 393 kts | 358° |
| 2026-05-06 03:22 | 37.71451 | -119.64636 | 34034 ft | 393 kts | 358° |
| 2026-05-06 03:23 | 37.76874 | -119.65548 | 34038 ft | 393 kts | 358° |
| 2026-05-06 03:23 | 37.82294 | -119.66461 | 34032 ft | 392 kts | 358° |
| 2026-05-06 03:24 | 37.87703 | -119.67373 | 34028 ft | 392 kts | 358° |
| 2026-05-06 03:24 | 37.93077 | -119.68280 | 34027 ft | 392 kts | 358° |
| 2026-05-06 03:25 | 37.98493 | -119.69195 | 34019 ft | 392 kts | 358° |
| 2026-05-06 03:25 | 38.03906 | -119.70112 | 34017 ft | 392 kts | 358° |
| 2026-05-06 03:26 | 38.09306 | -119.71029 | 34022 ft | 391 kts | 358° |
| 2026-05-06 03:26 | 38.14672 | -119.71940 | 34007 ft | 391 kts | 357° |
| 2026-05-06 03:27 | 38.20068 | -119.72857 | 34013 ft | 391 kts | 357° |
| 2026-05-06 03:27 | 38.25476 | -119.73779 | 34012 ft | 392 kts | 357° |
| 2026-05-06 03:28 | 38.30884 | -119.74702 | 34012 ft | 391 kts | 357° |
| 2026-05-06 03:28 | 38.36280 | -119.75624 | 34014 ft | 392 kts | 357° |
| 2026-05-06 03:29 | 38.41702 | -119.76552 | 34002 ft | 392 kts | 357° |
| 2026-05-06 03:29 | 38.47073 | -119.77473 | 33998 ft | 392 kts | 357° |
| 2026-05-06 03:30 | 38.52486 | -119.78402 | 33995 ft | 392 kts | 357° |
| 2026-05-06 03:30 | 38.57887 | -119.79331 | 33994 ft | 392 kts | 357° |
| 2026-05-06 03:31 | 38.63296 | -119.80262 | 34003 ft | 392 kts | 357° |
| 2026-05-06 03:31 | 38.68702 | -119.81194 | 34018 ft | 392 kts | 357° |
| 2026-05-06 03:32 | 38.74109 | -119.82128 | 34040 ft | 392 kts | 357° |
| 2026-05-06 03:32 | 38.79560 | -119.83071 | 34046 ft | 392 kts | 356° |
| 2026-05-06 03:33 | 38.84929 | -119.84001 | 34061 ft | 392 kts | 357° |
| 2026-05-06 03:33 | 38.90349 | -119.84941 | 34078 ft | 393 kts | 356° |
| 2026-05-06 03:34 | 38.95754 | -119.85880 | 34006 ft | 392 kts | 356° |
| 2026-05-06 03:34 | 39.01171 | -119.86823 | 34017 ft | 393 kts | 356° |
| 2026-05-06 03:35 | 39.06589 | -119.87768 | 34011 ft | 392 kts | 356° |
| 2026-05-06 03:35 | 39.11967 | -119.88707 | 34005 ft | 393 kts | 356° |
| 2026-05-06 03:36 | 39.17387 | -119.89654 | 34015 ft | 393 kts | 356° |
| 2026-05-06 03:36 | 39.22795 | -119.90601 | 33998 ft | 392 kts | 356° |
| 2026-05-06 03:37 | 39.28200 | -119.91550 | 33984 ft | 392 kts | 356° |
| 2026-05-06 03:37 | 39.32588 | -119.92321 | 34033 ft | 393 kts | 356° |
| 2026-05-06 03:38 | 39.38012 | -119.93275 | 34017 ft | 393 kts | 356° |
| 2026-05-06 03:38 | 39.43433 | -119.94229 | 33951 ft | 394 kts | 356° |
| 2026-05-06 03:39 | 39.48869 | -119.95188 | 33961 ft | 394 kts | 356° |
| 2026-05-06 03:39 | 39.54317 | -119.96151 | 33984 ft | 394 kts | 356° |
| 2026-05-06 03:40 | 39.59759 | -119.97115 | 34004 ft | 395 kts | 356° |
| 2026-05-06 03:40 | 39.65224 | -119.98084 | 34003 ft | 396 kts | 356° |
| 2026-05-06 03:41 | 39.70688 | -119.99054 | 34001 ft | 396 kts | 356° |
| 2026-05-06 03:41 | 39.76112 | -120.00019 | 33987 ft | 396 kts | 356° |
| 2026-05-06 03:42 | 39.81576 | -120.00991 | 33963 ft | 396 kts | 356° |
| 2026-05-06 03:42 | 39.87029 | -120.01965 | 33937 ft | 396 kts | 356° |
| 2026-05-06 03:43 | 39.92492 | -120.02941 | 33909 ft | 396 kts | 356° |
| 2026-05-06 03:43 | 39.97959 | -120.03919 | 33880 ft | 396 kts | 356° |
| 2026-05-06 03:44 | 40.03412 | -120.04897 | 33867 ft | 396 kts | 356° |
| 2026-05-06 03:44 | 40.08866 | -120.05877 | 33865 ft | 395 kts | 356° |
| 2026-05-06 03:45 | 40.14306 | -120.06855 | 33858 ft | 395 kts | 356° |
| 2026-05-06 03:45 | 40.19751 | -120.07851 | 33857 ft | 396 kts | 353° |
| 2026-05-06 03:46 | 40.22382 | -120.08964 | 33864 ft | 402 kts | 340° |
| 2026-05-06 03:46 | 40.24913 | -120.10592 | 33862 ft | 408 kts | 338° |
| 2026-05-06 03:46 | 40.30003 | -120.13968 | 33869 ft | 411 kts | 338° |
| 2026-05-06 03:47 | 40.35165 | -120.17071 | 33886 ft | 402 kts | 349° |
| 2026-05-06 03:47 | 40.40671 | -120.18208 | 33901 ft | 401 kts | 357° |
| 2026-05-06 03:48 | 40.46262 | -120.18979 | 33898 ft | 411 kts | 357° |
| 2026-05-06 03:48 | 40.51969 | -120.19752 | 33899 ft | 411 kts | 357° |
| 2026-05-06 03:49 | 40.57674 | -120.20519 | 33888 ft | 411 kts | 357° |
| 2026-05-06 03:49 | 40.63365 | -120.21279 | 33896 ft | 411 kts | 357° |
| 2026-05-06 03:50 | 40.69067 | -120.21877 | 33908 ft | 411 kts | 359° |
| 2026-05-06 03:50 | 40.74773 | -120.22333 | 33898 ft | 410 kts | 359° |
| 2026-05-06 03:51 | 40.80467 | -120.22786 | 33911 ft | 410 kts | 359° |
| 2026-05-06 03:51 | 40.86120 | -120.23233 | 33914 ft | 409 kts | 359° |
| 2026-05-06 03:52 | 40.91810 | -120.23672 | 33923 ft | 409 kts | 359° |
| 2026-05-06 03:52 | 40.97503 | -120.24107 | 33933 ft | 409 kts | 359° |
| 2026-05-06 03:53 | 41.03201 | -120.24461 | 33931 ft | 408 kts | 4° |
| 2026-05-06 03:53 | 41.08881 | -120.24536 | 33934 ft | 409 kts | 359° |
| 2026-05-06 03:54 | 41.14566 | -120.25277 | 33943 ft | 411 kts | 356° |
| 2026-05-06 03:54 | 41.20248 | -120.26250 | 33939 ft | 411 kts | 355° |
| 2026-05-06 03:55 | 41.25890 | -120.27285 | 33948 ft | 412 kts | 355° |
| 2026-05-06 03:55 | 41.31561 | -120.28340 | 33968 ft | 412 kts | 355° |
| 2026-05-06 03:56 | 41.37232 | -120.29399 | 33977 ft | 412 kts | 355° |
| 2026-05-06 03:56 | 41.42909 | -120.30461 | 33979 ft | 412 kts | 354° |
| 2026-05-06 03:57 | 41.48586 | -120.31524 | 33987 ft | 412 kts | 354° |
| 2026-05-06 03:57 | 41.54267 | -120.32591 | 33984 ft | 412 kts | 354° |
| 2026-05-06 03:58 | 41.59947 | -120.33658 | 33985 ft | 412 kts | 354° |
| 2026-05-06 03:58 | 41.65636 | -120.34730 | 33973 ft | 412 kts | 354° |
| 2026-05-06 03:59 | 41.71282 | -120.35795 | 33968 ft | 412 kts | 354° |
| 2026-05-06 03:59 | 41.76965 | -120.36870 | 33969 ft | 412 kts | 354° |
| 2026-05-06 04:00 | 41.82694 | -120.37955 | 33965 ft | 412 kts | 354° |
| 2026-05-06 04:00 | 41.88342 | -120.39026 | 33990 ft | 412 kts | 354° |
| 2026-05-06 04:01 | 41.94034 | -120.40108 | 34012 ft | 413 kts | 354° |
| 2026-05-06 04:01 | 41.99721 | -120.41191 | 34028 ft | 413 kts | 354° |
| 2026-05-06 04:02 | 42.05406 | -120.42275 | 34048 ft | 413 kts | 354° |
| 2026-05-06 04:02 | 42.11097 | -120.43362 | 34046 ft | 413 kts | 357° |
| 2026-05-06 04:03 | 42.16793 | -120.44453 | 34054 ft | 413 kts | 354° |
| 2026-05-06 04:03 | 42.22494 | -120.45546 | 34066 ft | 414 kts | 354° |
| 2026-05-06 04:04 | 42.28191 | -120.46641 | 34046 ft | 414 kts | 354° |
| 2026-05-06 04:04 | 42.33878 | -120.47735 | 34035 ft | 415 kts | 354° |
| 2026-05-06 04:05 | 42.39628 | -120.48844 | 34018 ft | 414 kts | 354° |
| 2026-05-06 04:05 | 42.45302 | -120.49940 | 34007 ft | 414 kts | 354° |
| 2026-05-06 04:06 | 42.50918 | -120.51655 | 33993 ft | 418 kts | 338° |
| 2026-05-06 04:06 | 42.56232 | -120.54912 | 33993 ft | 420 kts | 339° |
| 2026-05-06 04:07 | 42.61574 | -120.58136 | 33990 ft | 420 kts | 339° |
| 2026-05-06 04:07 | 42.66914 | -120.61372 | 33995 ft | 420 kts | 339° |
| 2026-05-06 04:08 | 42.72254 | -120.64615 | 33994 ft | 420 kts | 339° |
| 2026-05-06 04:08 | 42.77589 | -120.67860 | 33991 ft | 420 kts | 339° |
| 2026-05-06 04:09 | 42.82930 | -120.71116 | 33990 ft | 420 kts | 339° |
| 2026-05-06 04:09 | 42.88263 | -120.74372 | 33994 ft | 420 kts | 339° |
| 2026-05-06 04:10 | 42.93599 | -120.77637 | 33987 ft | 420 kts | 339° |
| 2026-05-06 04:10 | 42.98929 | -120.80904 | 33991 ft | 420 kts | 339° |
| 2026-05-06 04:11 | 43.04228 | -120.84159 | 33988 ft | 420 kts | 339° |
| 2026-05-06 04:11 | 43.09559 | -120.87439 | 33986 ft | 420 kts | 339° |
| 2026-05-06 04:12 | 43.14890 | -120.90726 | 33985 ft | 420 kts | 339° |
| 2026-05-06 04:12 | 43.20219 | -120.94017 | 33993 ft | 420 kts | 339° |
| 2026-05-06 04:13 | 43.25551 | -120.97318 | 33995 ft | 420 kts | 339° |
| 2026-05-06 04:13 | 43.30842 | -121.00598 | 33993 ft | 420 kts | 339° |
| 2026-05-06 04:14 | 43.36174 | -121.03911 | 33990 ft | 420 kts | 339° |
| 2026-05-06 04:14 | 43.41504 | -121.07229 | 33996 ft | 420 kts | 339° |
| 2026-05-06 04:15 | 43.46829 | -121.10550 | 33993 ft | 420 kts | 339° |
| 2026-05-06 04:15 | 43.52148 | -121.13874 | 33996 ft | 420 kts | 339° |
| 2026-05-06 04:16 | 43.57439 | -121.17187 | 34000 ft | 420 kts | 339° |
| 2026-05-06 04:16 | 43.62762 | -121.20526 | 34000 ft | 420 kts | 339° |
| 2026-05-06 04:17 | 43.68088 | -121.23874 | 33997 ft | 420 kts | 339° |
| 2026-05-06 04:17 | 43.73423 | -121.27232 | 33996 ft | 420 kts | 339° |
| 2026-05-06 04:18 | 43.77852 | -121.30027 | 34003 ft | 421 kts | 339° |
| 2026-05-06 04:18 | 43.83180 | -121.33397 | 34005 ft | 420 kts | 339° |
| 2026-05-06 04:19 | 43.88505 | -121.36769 | 34009 ft | 421 kts | 339° |
| 2026-05-06 04:19 | 43.93831 | -121.40149 | 34012 ft | 420 kts | 339° |
| 2026-05-06 04:20 | 43.99148 | -121.43531 | 34010 ft | 420 kts | 339° |
| 2026-05-06 04:20 | 44.04466 | -121.46919 | 34017 ft | 420 kts | 339° |
| 2026-05-06 04:21 | 44.09787 | -121.50316 | 34019 ft | 420 kts | 339° |
| 2026-05-06 04:21 | 44.15105 | -121.53718 | 34016 ft | 420 kts | 339° |
| 2026-05-06 04:22 | 44.20414 | -121.57121 | 34015 ft | 420 kts | 339° |
| 2026-05-06 04:23 | 44.28376 | -121.62237 | 34020 ft | 420 kts | 339° |
| 2026-05-06 04:23 | 44.33684 | -121.65657 | 34021 ft | 420 kts | 339° |
| 2026-05-06 04:24 | 44.38959 | -121.69061 | 34026 ft | 420 kts | 339° |
| 2026-05-06 04:24 | 44.44270 | -121.72495 | 34028 ft | 420 kts | 339° |
| 2026-05-06 04:25 | 44.49581 | -121.75938 | 34030 ft | 422 kts | 339° |
| 2026-05-06 04:25 | 44.54922 | -121.79407 | 34034 ft | 423 kts | 339° |
| 2026-05-06 04:26 | 44.60264 | -121.82882 | 34047 ft | 423 kts | 339° |
| 2026-05-06 04:26 | 44.65595 | -121.86358 | 34057 ft | 423 kts | 339° |
| 2026-05-06 04:27 | 44.70935 | -121.89847 | 34058 ft | 423 kts | 339° |
| 2026-05-06 04:27 | 44.76283 | -121.93348 | 34070 ft | 423 kts | 339° |
| 2026-05-06 04:28 | 44.81624 | -121.96852 | 34060 ft | 423 kts | 339° |
| 2026-05-06 04:28 | 44.86929 | -122.00340 | 34066 ft | 423 kts | 339° |
| 2026-05-06 04:29 | 44.92298 | -122.03876 | 34073 ft | 423 kts | 339° |
| 2026-05-06 04:29 | 44.97634 | -122.07398 | 34069 ft | 423 kts | 339° |
| 2026-05-06 04:30 | 45.02963 | -122.10923 | 34082 ft | 423 kts | 338° |
| 2026-05-06 04:30 | 45.08253 | -122.14429 | 34078 ft | 422 kts | 338° |
| 2026-05-06 04:31 | 45.13576 | -122.17965 | 34065 ft | 422 kts | 338° |
| 2026-05-06 04:31 | 45.18901 | -122.21508 | 34073 ft | 422 kts | 338° |
| 2026-05-06 04:32 | 45.24224 | -122.25057 | 34075 ft | 422 kts | 339° |
| 2026-05-06 04:32 | 45.26884 | -122.26833 | 33719 ft | 422 kts | 338° |
| 2026-05-06 04:32 | 45.29542 | -122.28612 | 33140 ft | 421 kts | 338° |
| 2026-05-06 04:32 | 45.32199 | -122.30392 | 32578 ft | 423 kts | 338° |
| 2026-05-06 04:33 | 45.34863 | -122.32178 | 32017 ft | 425 kts | 338° |
| 2026-05-06 04:33 | 45.37538 | -122.33973 | 31469 ft | 427 kts | 338° |
| 2026-05-06 04:33 | 45.40238 | -122.35785 | 30932 ft | 429 kts | 338° |
| 2026-05-06 04:33 | 45.42939 | -122.37602 | 30410 ft | 431 kts | 338° |
| 2026-05-06 04:34 | 45.45654 | -122.39428 | 29841 ft | 433 kts | 338° |
| 2026-05-06 04:34 | 45.48391 | -122.41272 | 29225 ft | 435 kts | 337° |
| 2026-05-06 04:34 | 45.51124 | -122.43115 | 28626 ft | 437 kts | 337° |
| 2026-05-06 04:34 | 45.53887 | -122.44980 | 28113 ft | 438 kts | 337° |
| 2026-05-06 04:35 | 45.56611 | -122.46822 | 27672 ft | 431 kts | 337° |
| 2026-05-06 04:35 | 45.59317 | -122.48653 | 27233 ft | 430 kts | 337° |
| 2026-05-06 04:35 | 45.62027 | -122.50488 | 26808 ft | 431 kts | 337° |
| 2026-05-06 04:35 | 45.64743 | -122.52330 | 26375 ft | 433 kts | 337° |
| 2026-05-06 04:36 | 45.67470 | -122.54181 | 25951 ft | 434 kts | 337° |
| 2026-05-06 04:36 | 45.70199 | -122.56035 | 25553 ft | 435 kts | 337° |
| 2026-05-06 04:36 | 45.72930 | -122.57893 | 25122 ft | 433 kts | 337° |
| 2026-05-06 04:36 | 45.75723 | -122.59424 | 24711 ft | 427 kts | 349° |
| 2026-05-06 04:37 | 45.78642 | -122.60102 | 24335 ft | 424 kts | 352° |
| 2026-05-06 04:37 | 45.81551 | -122.60821 | 23937 ft | 423 kts | 352° |
| 2026-05-06 04:37 | 45.84441 | -122.61538 | 23541 ft | 421 kts | 352° |
| 2026-05-06 04:37 | 45.87322 | -122.62251 | 23131 ft | 419 kts | 352° |
| 2026-05-06 04:38 | 45.90183 | -122.62960 | 22735 ft | 417 kts | 352° |
| 2026-05-06 04:38 | 45.93046 | -122.63670 | 22334 ft | 414 kts | 352° |
| 2026-05-06 04:38 | 45.95875 | -122.64372 | 21968 ft | 412 kts | 352° |
| 2026-05-06 04:38 | 45.98695 | -122.65073 | 21589 ft | 410 kts | 351° |
| 2026-05-06 04:39 | 46.01510 | -122.65773 | 21209 ft | 408 kts | 351° |
| 2026-05-06 04:39 | 46.04263 | -122.66459 | 20838 ft | 406 kts | 351° |
| 2026-05-06 04:39 | 46.07049 | -122.67153 | 20466 ft | 403 kts | 351° |
| 2026-05-06 04:39 | 46.09802 | -122.67806 | 20102 ft | 395 kts | 353° |
| 2026-05-06 04:40 | 46.12491 | -122.68346 | 19751 ft | 387 kts | 353° |
| 2026-05-06 04:40 | 46.15110 | -122.68865 | 19397 ft | 381 kts | 353° |
| 2026-05-06 04:40 | 46.17715 | -122.69382 | 19047 ft | 376 kts | 353° |
| 2026-05-06 04:40 | 46.20310 | -122.69896 | 18698 ft | 376 kts | 353° |
| 2026-05-06 04:41 | 46.22903 | -122.70409 | 18344 ft | 375 kts | 353° |
| 2026-05-06 04:41 | 46.25475 | -122.70919 | 17933 ft | 373 kts | 353° |
| 2026-05-06 04:41 | 46.28038 | -122.71429 | 17541 ft | 371 kts | 353° |
| 2026-05-06 04:41 | 46.30598 | -122.71937 | 17153 ft | 369 kts | 353° |
| 2026-05-06 04:42 | 46.33144 | -122.72266 | 16760 ft | 367 kts | 359° |
| 2026-05-06 04:42 | 46.35700 | -122.72346 | 16386 ft | 366 kts | 359° |
| 2026-05-06 04:42 | 46.38236 | -122.72435 | 16008 ft | 364 kts | 359° |
| 2026-05-06 04:42 | 46.40763 | -122.72526 | 15628 ft | 362 kts | 359° |
| 2026-05-06 04:43 | 46.43283 | -122.72617 | 15261 ft | 361 kts | 359° |
| 2026-05-06 04:43 | 46.45780 | -122.72707 | 14901 ft | 359 kts | 359° |
| 2026-05-06 04:43 | 46.48277 | -122.72797 | 14540 ft | 358 kts | 359° |
| 2026-05-06 04:43 | 46.50760 | -122.72887 | 14193 ft | 356 kts | 359° |
| 2026-05-06 04:44 | 46.53232 | -122.72977 | 13823 ft | 355 kts | 359° |
| 2026-05-06 04:44 | 46.55701 | -122.73067 | 13430 ft | 353 kts | 359° |
| 2026-05-06 04:44 | 46.58155 | -122.73156 | 13033 ft | 351 kts | 359° |
| 2026-05-06 04:44 | 46.60595 | -122.73245 | 12642 ft | 350 kts | 359° |
| 2026-05-06 04:45 | 46.63023 | -122.73333 | 12316 ft | 345 kts | 359° |
| 2026-05-06 04:45 | 46.65398 | -122.73420 | 12095 ft | 337 kts | 359° |
| 2026-05-06 04:45 | 46.67695 | -122.73504 | 12062 ft | 335 kts | 359° |
| 2026-05-06 04:45 | 46.70034 | -122.73589 | 12044 ft | 335 kts | 359° |
| 2026-05-06 04:46 | 46.72373 | -122.73674 | 12035 ft | 335 kts | 359° |
| 2026-05-06 04:46 | 46.74706 | -122.73760 | 12032 ft | 335 kts | 359° |
| 2026-05-06 04:46 | 46.77040 | -122.73754 | 12014 ft | 335 kts | 7° |
| 2026-05-06 04:46 | 46.79242 | -122.72700 | 12027 ft | 335 kts | 29° |
| 2026-05-06 04:47 | 46.81115 | -122.70683 | 12018 ft | 336 kts | 37° |
| 2026-05-06 04:47 | 46.82949 | -122.68557 | 12015 ft | 336 kts | 37° |
| 2026-05-06 04:47 | 46.84779 | -122.66433 | 12005 ft | 336 kts | 37° |
| 2026-05-06 04:47 | 46.86632 | -122.64336 | 12011 ft | 336 kts | 37° |
| 2026-05-06 04:48 | 46.88482 | -122.62233 | 11994 ft | 336 kts | 37° |
| 2026-05-06 04:48 | 46.90326 | -122.60135 | 11987 ft | 336 kts | 37° |
| 2026-05-06 04:48 | 46.92173 | -122.58030 | 11994 ft | 336 kts | 37° |
| 2026-05-06 04:48 | 46.94096 | -122.56121 | 11974 ft | 334 kts | 23° |
| 2026-05-06 04:49 | 46.96301 | -122.55085 | 11690 ft | 334 kts | 16° |
| 2026-05-06 04:49 | 46.98522 | -122.54129 | 11368 ft | 330 kts | 16° |
| 2026-05-06 04:49 | 47.00676 | -122.53192 | 11070 ft | 325 kts | 16° |
| 2026-05-06 04:49 | 47.02828 | -122.52253 | 10775 ft | 320 kts | 16° |
| 2026-05-06 04:50 | 47.04944 | -122.51329 | 10487 ft | 315 kts | 16° |
| 2026-05-06 04:50 | 47.07030 | -122.50417 | 10242 ft | 310 kts | 17° |
| 2026-05-06 04:50 | 47.09121 | -122.49751 | 9995 ft | 306 kts | 7° |
| 2026-05-06 04:50 | 47.11224 | -122.49401 | 9735 ft | 303 kts | 7° |
| 2026-05-06 04:51 | 47.13313 | -122.49034 | 9460 ft | 302 kts | 7° |
| 2026-05-06 04:51 | 47.15398 | -122.48660 | 9189 ft | 301 kts | 7° |
| 2026-05-06 04:51 | 47.17475 | -122.48336 | 8918 ft | 300 kts | 5° |
| 2026-05-06 04:51 | 47.19543 | -122.48088 | 8654 ft | 298 kts | 5° |
| 2026-05-06 04:52 | 47.21614 | -122.47838 | 8387 ft | 297 kts | 5° |
| 2026-05-06 04:52 | 47.23669 | -122.47588 | 8135 ft | 296 kts | 5° |
| 2026-05-06 04:52 | 47.25714 | -122.47340 | 7874 ft | 293 kts | 5° |
| 2026-05-06 04:52 | 47.27717 | -122.47094 | 7663 ft | 284 kts | 5° |
| 2026-05-06 04:53 | 47.29664 | -122.46855 | 7405 ft | 276 kts | 5° |
| 2026-05-06 04:53 | 47.31544 | -122.46623 | 7153 ft | 268 kts | 5° |
| 2026-05-06 04:53 | 47.33381 | -122.46393 | 6904 ft | 262 kts | 5° |
| 2026-05-06 04:53 | 47.35175 | -122.46195 | 6658 ft | 255 kts | 3° |
| 2026-05-06 04:54 | 47.36936 | -122.46119 | 6415 ft | 250 kts | 1° |
| 2026-05-06 04:54 | 47.38651 | -122.46079 | 6177 ft | 245 kts | 1° |
| 2026-05-06 04:54 | 47.40354 | -122.46043 | 5981 ft | 244 kts | 1° |
| 2026-05-06 04:54 | 47.42049 | -122.46010 | 5766 ft | 243 kts | 1° |
| 2026-05-06 04:55 | 47.43193 | -122.45986 | 5633 ft | 243 kts | 1° |
| 2026-05-06 04:55 | 47.44882 | -122.45950 | 5437 ft | 242 kts | 1° |
| 2026-05-06 04:55 | 47.46541 | -122.45912 | 5259 ft | 242 kts | 1° |
| 2026-05-06 04:55 | 47.48223 | -122.45871 | 5102 ft | 239 kts | 1° |
| 2026-05-06 04:56 | 47.49843 | -122.45827 | 4904 ft | 227 kts | 1° |
| 2026-05-06 04:56 | 47.51398 | -122.45781 | 4710 ft | 220 kts | 1° |
| 2026-05-06 04:56 | 47.52923 | -122.45739 | 4515 ft | 219 kts | 1° |
| 2026-05-06 04:56 | 47.54437 | -122.45700 | 4292 ft | 214 kts | 1° |
| 2026-05-06 04:57 | 47.55908 | -122.45663 | 4046 ft | 208 kts | 1° |
| 2026-05-06 04:57 | 47.57340 | -122.45610 | 3788 ft | 203 kts | 6° |
| 2026-05-06 04:57 | 47.58563 | -122.44725 | 3459 ft | 200 kts | 51° |
| 2026-05-06 04:57 | 47.58978 | -122.42828 | 3232 ft | 197 kts | 95° |
| 2026-05-06 04:58 | 47.58913 | -122.40791 | 3083 ft | 200 kts | 83° |
| 2026-05-06 04:58 | 47.59202 | -122.38772 | 2950 ft | 201 kts | 78° |
| 2026-05-06 04:58 | 47.59539 | -122.36763 | 2839 ft | 201 kts | 78° |
| 2026-05-06 04:58 | 47.59851 | -122.34749 | 2769 ft | 200 kts | 88° |
| 2026-05-06 04:59 | 47.59579 | -122.32801 | 2724 ft | 192 kts | 122° |
| 2026-05-06 04:59 | 47.58653 | -122.31485 | 2651 ft | 182 kts | 154° |
| 2026-05-06 04:59 | 47.57462 | -122.30871 | 2584 ft | 181 kts | 168° |
| 2026-05-06 04:59 | 47.56253 | -122.30677 | 2446 ft | 164 kts | 179° |
| 2026-05-06 05:00 | 47.55165 | -122.30701 | 2269 ft | 153 kts | 181° |
| 2026-05-06 05:00 | 47.54134 | -122.30718 | 2099 ft | 144 kts | 181° |
| 2026-05-06 05:00 | 47.53163 | -122.30726 | 1927 ft | 140 kts | 181° |
| 2026-05-06 05:00 | 47.52183 | -122.30733 | 1730 ft | 138 kts | 182° |
| 2026-05-06 05:01 | 47.51237 | -122.30742 | 1555 ft | 137 kts | 181° |
| 2026-05-06 05:01 | 47.50288 | -122.30751 | 1366 ft | 137 kts | 181° |
| 2026-05-06 05:01 | 47.49340 | -122.30747 | 1136 ft | 135 kts | 181° |
| 2026-05-06 05:01 | 47.48392 | -122.30759 | 880 ft | 137 kts | 180° |
| 2026-05-06 05:02 | 47.47423 | -122.30753 | 623 ft | 138 kts | 181° |
| 2026-05-06 05:02 | 47.46477 | -122.30772 | 437 ft | 135 kts | 180° |
| 2026-05-06 05:02 | 47.45567 | -122.30783 | 386 ft | 112 kts | 181° |
| 2026-05-06 05:02 | 47.45019 | -122.30790 | 386 ft | 47 kts | 180° |
| 2026-05-06 05:03 | 47.44766 | -122.30794 | 386 ft | 40 kts | 181° |
| 2026-05-06 05:03 | 47.44594 | -122.30735 | 386 ft | 15 kts | 115° |
| 2026-05-06 05:03 | 47.44610 | -122.30643 | 386 ft | 13 kts | 49° |
| 2026-05-06 05:03 | 47.44714 | -122.30621 | 386 ft | 20 kts | 358° |
| 2026-05-06 05:04 | 47.44859 | -122.30624 | 386 ft | 21 kts | 359° |
| 2026-05-06 05:04 | 47.45031 | -122.30616 | 386 ft | 27 kts | 20° |
| 2026-05-06 05:04 | 47.45048 | -122.30540 | 386 ft | 9 kts | 114° |
| 2026-05-06 05:04 | 47.45010 | -122.30496 | 386 ft | 2 kts | 149° |
| 2026-05-06 05:05 | 47.44992 | -122.30480 | 386 ft | 6 kts | 146° |
| 2026-05-06 05:05 | 47.44965 | -122.30442 | 386 ft | 1 kts | 129° |
| 2026-05-06 05:05 | 47.44958 | -122.30429 | 386 ft | 2 kts | 129° |
| 2026-05-06 05:05 | 47.44954 | -122.30422 | 386 ft | 1 kts | 129° |
| 2026-05-06 05:06 | 47.44953 | -122.30421 | 386 ft | 0 kts | 129° |